createdAt,value
2022-12-11T00:01:21.368Z,18.50
2022-12-11T00:03:50.080Z,23.50
2022-12-11T00:06:22.289Z,20.77
2022-12-11T00:08:54.041Z,22.40
2022-12-11T00:13:51.455Z,18.50
2022-12-11T00:16:25.251Z,23.40
2022-12-11T00:18:55.239Z,19.80
2022-12-11T00:21:24.901Z,21.13
2022-12-11T00:23:53.176Z,16.10
2022-12-11T00:26:21.409Z,16.90
2022-12-11T00:28:49.700Z,19.63
2022-12-11T00:31:19.647Z,23.27
2022-12-11T00:33:49.251Z,27.10
2022-12-11T00:36:19.561Z,22.77
2022-12-11T00:38:49.952Z,26.17
2022-12-11T00:41:19.031Z,25.90
2022-12-11T00:43:47.516Z,22.70
2022-12-11T00:46:16.042Z,23.83
2022-12-11T00:48:44.371Z,25.17
2022-12-11T00:51:13.162Z,25.17
2022-12-11T00:53:41.349Z,22.60
2022-12-11T00:56:16.389Z,22.20
2022-12-11T00:58:44.598Z,25.77
2022-12-11T01:01:15.238Z,26.63
2022-12-11T01:03:43.451Z,27.70
2022-12-11T01:06:15.489Z,26.90
2022-12-11T01:08:44.023Z,24.50
2022-12-11T01:11:15.237Z,22.33
2022-12-11T01:13:43.642Z,23.92
2022-12-11T01:16:13.481Z,23.93
2022-12-11T01:18:42.142Z,26.27
2022-12-11T01:21:12.188Z,26.33
2022-12-11T01:23:41.143Z,27.23
2022-12-11T01:26:11.869Z,27.87
2022-12-11T01:28:42.178Z,26.27
2022-12-11T01:31:11.548Z,25.37
2022-12-11T01:33:40.456Z,25.63
2022-12-11T01:36:10.652Z,23.63
2022-12-11T01:38:39.034Z,26.07
2022-12-11T01:41:07.830Z,21.87
2022-12-11T01:43:36.408Z,20.23
2022-12-11T01:46:06.351Z,24.33
2022-12-11T01:48:39.234Z,18.63
2022-12-11T01:51:10.251Z,22.87
2022-12-11T01:53:42.916Z,21.63
2022-12-11T01:56:11.842Z,21.27
2022-12-11T01:58:43.791Z,22.37
2022-12-11T02:01:16.287Z,18.53
2022-12-11T02:03:44.775Z,18.23
2022-12-11T02:06:32.116Z,20.13
2022-12-11T02:09:00.898Z,16.60
2022-12-11T02:11:36.691Z,20.13
2022-12-11T02:14:10.440Z,19.13
2022-12-11T02:16:47.010Z,20.87
2022-12-11T02:19:31.395Z,18.90
2022-12-11T02:22:03.093Z,19.80
2022-12-11T02:27:24.334Z,18.73
2022-12-11T02:29:58.961Z,17.02
2022-12-11T02:32:32.554Z,18.67
2022-12-11T02:35:06.123Z,15.83
2022-12-11T02:37:35.865Z,20.03
2022-12-11T02:40:07.731Z,16.77
2022-12-11T02:42:38.755Z,18.67
2022-12-11T02:45:11.061Z,19.13
2022-12-11T02:47:40.308Z,23.13
2022-12-11T02:50:12.930Z,23.60
2022-12-11T02:52:43.560Z,22.40
2022-12-11T02:55:15.364Z,22.27
2022-12-11T02:57:48.915Z,25.23
2022-12-11T03:00:19.660Z,20.23
2022-12-11T03:02:48.054Z,23.27
2022-12-11T03:05:16.539Z,23.50
2022-12-11T03:07:46.552Z,24.97
2022-12-11T03:10:18.924Z,22.67
2022-12-11T03:12:53.403Z,24.07
2022-12-11T03:15:40.536Z,21.83
2022-12-11T03:18:16.822Z,23.77
2022-12-11T03:20:48.123Z,23.07
2022-12-11T03:23:22.333Z,29.08
2022-12-11T03:25:56.536Z,27.63
2022-12-11T03:28:30.387Z,26.23
2022-12-11T03:31:04.934Z,25.63
2022-12-11T03:33:36.979Z,25.13
2022-12-11T03:36:08.581Z,26.70
2022-12-11T03:38:42.779Z,23.73
2022-12-11T03:41:13.662Z,23.03
2022-12-11T03:43:42.597Z,20.73
2022-12-11T03:46:14.727Z,21.57
2022-12-11T03:48:46.204Z,19.20
2022-12-11T03:51:15.188Z,18.70
2022-12-11T03:53:44.008Z,15.77
2022-12-11T03:56:15.121Z,20.37
2022-12-11T03:58:43.399Z,20.23
2022-12-11T04:01:13.480Z,15.93
2022-12-11T04:03:41.755Z,19.10
2022-12-11T04:06:09.940Z,18.43
2022-12-11T04:08:38.104Z,18.20
2022-12-11T04:11:23.174Z,19.90
2022-12-11T04:14:11.364Z,20.40
2022-12-11T04:16:39.908Z,18.30
2022-12-11T04:19:25.435Z,22.30
2022-12-11T04:22:10.871Z,17.00
2022-12-11T04:24:39.799Z,20.23
2022-12-11T04:27:08.239Z,20.00
2022-12-11T04:29:36.457Z,19.80
2022-12-11T04:32:06.383Z,16.67
2022-12-11T04:34:34.642Z,17.17
2022-12-11T04:37:02.823Z,17.47
2022-12-11T04:39:31.247Z,17.33
2022-12-11T04:41:59.459Z,16.20
2022-12-11T04:44:29.651Z,19.50
2022-12-11T04:46:57.848Z,15.73
2022-12-11T04:49:27.784Z,19.00
2022-12-11T04:51:55.964Z,17.80
2022-12-11T04:54:24.162Z,17.13
2022-12-11T04:56:52.531Z,16.83
2022-12-11T04:59:20.739Z,19.37
2022-12-11T05:01:49.004Z,17.43
2022-12-11T05:04:17.219Z,18.10
2022-12-11T05:06:46.825Z,18.43
2022-12-11T05:09:15.130Z,18.93
2022-12-11T05:11:43.418Z,20.90
2022-12-11T05:14:11.886Z,22.37
2022-12-11T05:16:40.068Z,16.67
2022-12-11T05:19:08.256Z,18.20
2022-12-11T05:21:36.481Z,17.10
2022-12-11T05:24:06.783Z,17.30
2022-12-11T05:26:34.987Z,17.27
2022-12-11T05:29:03.222Z,20.63
2022-12-11T05:31:31.475Z,17.57
2022-12-11T05:33:59.721Z,17.60
2022-12-11T05:36:29.407Z,17.17
2022-12-11T05:38:58.909Z,17.50
2022-12-11T05:41:33.765Z,20.93
2022-12-11T05:44:02.188Z,20.30
2022-12-11T05:46:31.749Z,17.10
2022-12-11T05:49:03.086Z,18.80
2022-12-11T05:51:33.859Z,18.92
2022-12-11T05:54:02.169Z,17.65
2022-12-11T05:56:34.345Z,18.93
2022-12-11T05:59:04.459Z,17.83
2022-12-11T06:01:35.501Z,18.17
2022-12-11T06:04:04.153Z,19.45
2022-12-11T06:06:32.747Z,23.83
2022-12-11T06:09:01.957Z,23.17
2022-12-11T06:11:33.395Z,18.43
2022-12-11T06:14:03.029Z,17.45
2022-12-11T06:16:31.799Z,17.60
2022-12-11T06:19:00.312Z,19.60
2022-12-11T06:21:30.552Z,19.43
2022-12-11T06:24:00.515Z,19.10
2022-12-11T06:26:29.508Z,19.83
2022-12-11T06:28:59.265Z,15.80
2022-12-11T06:31:27.698Z,18.33
2022-12-11T06:33:56.392Z,19.13
2022-12-11T06:36:25.605Z,17.37
2022-12-11T06:38:54.300Z,18.07
2022-12-11T06:41:22.477Z,18.20
2022-12-11T06:43:50.780Z,18.37
2022-12-11T06:46:21.261Z,15.70
2022-12-11T06:48:50.771Z,18.50
2022-12-11T06:51:20.689Z,18.57
2022-12-11T06:53:53.323Z,18.50
2022-12-11T06:56:22.548Z,17.47
2022-12-11T06:58:52.027Z,13.47
2022-12-11T07:01:25.021Z,19.27
2022-12-11T07:03:54.919Z,20.80
2022-12-11T07:06:23.952Z,18.60
2022-12-11T07:08:52.653Z,17.47
2022-12-11T07:11:21.768Z,17.87
2022-12-11T07:13:50.248Z,15.97
2022-12-11T07:16:19.444Z,16.53
2022-12-11T07:18:50.875Z,12.63
2022-12-11T07:21:20.493Z,13.85
2022-12-11T07:23:49.921Z,14.17
2022-12-11T07:26:21.682Z,19.40
2022-12-11T07:31:20.067Z,13.07
2022-12-11T07:33:54.156Z,14.67
2022-12-11T07:36:22.712Z,16.03
2022-12-11T07:38:50.932Z,15.53
2022-12-11T07:41:19.559Z,21.03
2022-12-11T07:43:48.851Z,16.50
2022-12-11T07:46:19.159Z,17.03
2022-12-11T07:48:49.576Z,17.47
2022-12-11T07:51:19.653Z,16.67
2022-12-11T07:53:50.788Z,18.83
2022-12-11T07:56:19.887Z,23.42
2022-12-11T07:58:48.927Z,17.63
2022-12-11T08:01:19.186Z,19.37
2022-12-11T08:03:49.412Z,20.20
2022-12-11T08:06:17.899Z,19.37
2022-12-11T08:08:47.451Z,21.43
2022-12-11T08:11:16.510Z,26.23
2022-12-11T08:13:45.893Z,37.00
2022-12-11T08:16:16.617Z,24.03
2022-12-11T08:18:46.491Z,18.97
2022-12-11T08:21:17.943Z,16.83
2022-12-11T08:23:46.448Z,15.05
2022-12-11T08:26:16.847Z,17.60
2022-12-11T08:28:45.662Z,12.03
2022-12-11T08:31:16.170Z,12.37
2022-12-11T08:33:45.274Z,12.73
2022-12-11T08:36:17.499Z,13.13
2022-12-11T08:38:46.650Z,15.70
2022-12-11T08:41:16.962Z,16.87
2022-12-11T08:43:45.133Z,15.82
2022-12-11T08:46:14.492Z,13.93
2022-12-11T08:48:44.314Z,14.18
2022-12-11T08:51:16.226Z,14.63
2022-12-11T08:53:44.977Z,17.67
2022-12-11T08:56:15.136Z,15.18
2022-12-11T08:58:43.451Z,14.48
2022-12-11T09:01:13.478Z,14.60
2022-12-11T09:03:42.676Z,14.38
2022-12-11T09:06:13.005Z,13.90
2022-12-11T09:08:47.303Z,14.13
2022-12-11T09:11:22.736Z,13.32
2022-12-11T09:13:51.475Z,11.27
2022-12-11T09:16:22.406Z,16.40
2022-12-11T09:18:51.964Z,15.40
2022-12-11T09:21:23.431Z,12.55
2022-12-11T09:23:54.887Z,14.80
2022-12-11T09:26:23.511Z,15.98
2022-12-11T09:28:53.308Z,14.50
2022-12-11T09:31:24.627Z,15.90
2022-12-11T09:33:55.379Z,13.43
2022-12-11T09:36:23.822Z,14.18
2022-12-11T09:38:53.780Z,15.20
2022-12-11T09:41:36.330Z,16.77
2022-12-11T09:44:20.811Z,16.45
2022-12-11T09:46:50.675Z,19.17
2022-12-11T09:49:33.658Z,16.38
2022-12-11T09:52:11.830Z,15.95
2022-12-11T09:54:46.324Z,14.75
2022-12-11T09:57:28.183Z,13.52
2022-12-11T10:00:11.301Z,15.18
2022-12-11T10:02:55.936Z,15.18
2022-12-11T10:05:32.677Z,15.15
2022-12-11T10:08:06.676Z,15.75
2022-12-11T10:10:43.764Z,13.70
2022-12-11T10:13:24.080Z,14.07
2022-12-11T10:15:58.326Z,14.07
2022-12-11T10:18:29.193Z,14.30
2022-12-11T10:21:02.073Z,13.90
2022-12-11T10:23:36.075Z,13.30
2022-12-11T10:26:09.588Z,13.02
2022-12-11T10:28:37.924Z,13.80
2022-12-11T10:31:15.435Z,13.38
2022-12-11T10:33:55.273Z,15.02
2022-12-11T10:36:29.487Z,9.70
2022-12-11T10:38:57.936Z,10.00
2022-12-11T10:41:38.075Z,12.00
2022-12-11T10:44:17.432Z,10.88
2022-12-11T10:46:46.107Z,10.43
2022-12-11T10:49:25.281Z,11.50
2022-12-11T10:51:55.484Z,12.10
2022-12-11T10:54:38.183Z,11.60
2022-12-11T10:57:10.901Z,11.82
2022-12-11T10:59:45.340Z,9.88
2022-12-11T11:02:25.676Z,11.13
2022-12-11T11:04:55.046Z,10.68
2022-12-11T11:07:26.034Z,8.77
2022-12-11T11:10:08.063Z,8.85
2022-12-11T11:12:42.326Z,8.90
2022-12-11T11:15:14.505Z,9.75
2022-12-11T11:17:52.955Z,9.82
2022-12-11T11:20:25.296Z,11.10
2022-12-11T11:22:56.131Z,10.70
2022-12-11T11:25:26.746Z,8.93
2022-12-11T11:27:58.497Z,9.23
2022-12-11T11:30:29.218Z,11.60
2022-12-11T11:33:00.786Z,8.73
2022-12-11T11:35:30.863Z,11.27
2022-12-11T11:38:04.359Z,10.35
2022-12-11T11:40:38.594Z,11.00
2022-12-11T11:43:17.500Z,11.48
2022-12-11T11:45:53.188Z,9.40
2022-12-11T11:48:34.405Z,9.77
2022-12-11T11:51:12.999Z,10.77
2022-12-11T11:53:41.806Z,10.95
2022-12-11T11:56:22.464Z,11.45
2022-12-11T11:59:01.165Z,10.27
2022-12-11T12:01:30.020Z,10.75
2022-12-11T12:03:58.751Z,9.27
2022-12-11T12:06:35.714Z,9.05
2022-12-11T12:09:14.870Z,8.70
2022-12-11T12:11:50.687Z,9.38
2022-12-11T12:14:51.100Z,9.05
2022-12-11T12:17:20.584Z,8.32
2022-12-11T12:19:57.515Z,9.27
2022-12-11T12:22:41.539Z,8.05
2022-12-11T12:25:20.868Z,9.35
2022-12-11T12:27:58.973Z,7.90
2022-12-11T12:30:38.689Z,9.15
2022-12-11T12:33:20.116Z,7.75
2022-12-11T12:38:24.770Z,9.35
2022-12-11T12:41:04.527Z,8.95
2022-12-11T12:43:44.823Z,9.13
2022-12-11T12:46:26.284Z,7.85
2022-12-11T12:51:25.601Z,7.53
2022-12-11T12:53:57.658Z,9.18
2022-12-11T12:56:27.241Z,8.02
2022-12-11T12:58:55.673Z,8.10
2022-12-11T13:01:27.461Z,9.60
2022-12-11T13:03:58.524Z,9.43
2022-12-11T13:06:32.587Z,8.13
2022-12-11T13:09:14.847Z,8.73
2022-12-11T13:11:43.505Z,7.88
2022-12-11T13:14:29.648Z,6.95
2022-12-11T13:17:25.538Z,6.93
2022-12-11T13:20:12.664Z,7.50
2022-12-11T13:22:51.900Z,7.35
2022-12-11T13:25:27.511Z,6.97
2022-12-11T13:28:07.186Z,6.78
2022-12-11T13:30:35.670Z,7.03
2022-12-11T13:33:08.594Z,5.93
2022-12-11T13:35:37.005Z,7.70
2022-12-11T13:38:08.501Z,7.35
2022-12-11T13:40:41.109Z,6.50
2022-12-11T13:43:19.596Z,6.50
2022-12-11T13:45:51.023Z,7.20
2022-12-11T13:48:25.347Z,6.60
2022-12-11T13:50:54.711Z,6.68
2022-12-11T13:53:23.992Z,6.63
2022-12-11T13:56:00.057Z,5.72
2022-12-11T13:58:29.585Z,6.68
2022-12-11T14:01:08.813Z,6.15
2022-12-11T14:03:41.016Z,7.03
2022-12-11T14:06:16.588Z,7.43
2022-12-11T14:08:50.926Z,6.72
2022-12-11T14:11:25.007Z,8.40
2022-12-11T14:13:53.268Z,7.28
2022-12-11T14:16:23.943Z,8.75
2022-12-11T14:18:54.801Z,7.57
2022-12-11T14:21:25.042Z,7.10
2022-12-11T14:23:54.855Z,7.22
2022-12-11T14:26:24.811Z,7.95
2022-12-11T14:28:53.993Z,6.93
2022-12-11T14:31:29.270Z,8.40
2022-12-11T14:34:04.370Z,7.30
2022-12-11T14:36:34.492Z,7.45
2022-12-11T14:39:06.475Z,8.05
2022-12-11T14:41:43.679Z,9.00
2022-12-11T14:44:16.739Z,8.13
2022-12-11T14:46:47.593Z,9.77
2022-12-11T14:49:24.885Z,8.60
2022-12-11T14:51:56.198Z,9.20
2022-12-11T14:54:30.661Z,10.40
2022-12-11T14:56:59.439Z,10.98
2022-12-11T14:59:32.189Z,11.80
2022-12-11T15:02:02.560Z,11.13
2022-12-11T15:04:34.549Z,10.23
2022-12-11T15:07:03.035Z,12.85
2022-12-11T15:09:40.743Z,13.77
2022-12-11T15:12:12.551Z,10.95
2022-12-11T15:17:15.534Z,11.30
2022-12-11T15:19:51.115Z,11.38
2022-12-11T15:22:21.249Z,9.48
2022-12-11T15:24:53.002Z,11.20
2022-12-11T15:29:55.255Z,10.13
2022-12-11T15:32:24.063Z,12.43
2022-12-11T15:34:55.487Z,13.15
2022-12-11T15:37:26.426Z,12.65
2022-12-11T15:39:56.151Z,13.13
2022-12-11T15:42:28.718Z,13.60
2022-12-11T15:44:58.243Z,12.20
2022-12-11T15:47:28.071Z,12.47
2022-12-11T15:50:00.750Z,13.13
2022-12-11T15:52:29.282Z,11.07
2022-12-11T15:54:57.521Z,10.27
2022-12-11T15:57:26.393Z,15.83
2022-12-11T15:59:56.417Z,19.93
2022-12-11T16:02:26.832Z,22.10
2022-12-11T16:04:55.298Z,20.47
2022-12-11T16:07:26.662Z,19.47
2022-12-11T16:09:55.073Z,24.52
2022-12-11T16:12:23.598Z,27.87
2022-12-11T16:14:51.820Z,18.37
2022-12-11T16:17:20.457Z,14.60
2022-12-11T16:19:48.943Z,16.00
2022-12-11T16:22:17.225Z,14.10
2022-12-11T16:24:46.869Z,15.50
2022-12-11T16:27:21.428Z,15.98
2022-12-11T16:29:51.503Z,14.30
2022-12-11T16:32:19.886Z,14.37
2022-12-11T16:34:48.194Z,12.50
2022-12-11T16:37:16.384Z,12.20
2022-12-11T16:39:46.965Z,12.83
2022-12-11T16:42:15.169Z,11.97
2022-12-11T16:44:44.365Z,12.73
2022-12-11T16:47:13.036Z,10.53
2022-12-11T16:49:42.463Z,10.97
2022-12-11T16:52:10.736Z,11.33
2022-12-11T16:54:39.154Z,12.67
2022-12-11T16:57:08.821Z,10.27
2022-12-11T16:59:37.810Z,11.80
2022-12-11T17:02:06.589Z,18.10
2022-12-11T17:04:35.292Z,12.77
2022-12-11T17:07:03.803Z,13.57
2022-12-11T17:09:32.568Z,15.77
2022-12-11T17:12:00.920Z,14.20
2022-12-11T17:14:30.938Z,13.80
2022-12-11T17:16:59.141Z,14.80
2022-12-11T17:19:27.446Z,15.63
2022-12-11T17:21:56.145Z,14.43
2022-12-11T17:24:24.752Z,16.97
2022-12-11T17:26:53.824Z,15.40
2022-12-11T17:29:22.135Z,14.20
2022-12-11T17:31:52.007Z,13.73
2022-12-11T17:34:20.227Z,14.33
2022-12-11T17:36:48.456Z,13.40
2022-12-11T17:39:16.738Z,12.10
2022-12-11T17:41:44.960Z,17.30
2022-12-11T17:44:13.144Z,11.40
2022-12-11T17:46:41.540Z,12.13
2022-12-11T17:49:11.262Z,14.50
2022-12-11T17:51:39.560Z,11.63
2022-12-11T17:54:07.754Z,19.57
2022-12-11T17:56:36.313Z,16.50
2022-12-11T17:59:05.024Z,11.23
2022-12-11T18:01:33.315Z,12.57
2022-12-11T18:04:02.480Z,11.73
2022-12-11T18:06:32.725Z,12.07
2022-12-11T18:09:00.890Z,13.17
2022-12-11T18:11:29.117Z,10.90
2022-12-11T18:13:57.443Z,14.10
2022-12-11T18:16:28.046Z,11.90
2022-12-11T18:18:56.530Z,13.27
2022-12-11T18:21:26.872Z,11.70
2022-12-11T18:23:56.564Z,11.77
2022-12-11T18:26:25.090Z,13.17
2022-12-11T18:28:54.201Z,9.90
2022-12-11T18:31:23.943Z,16.90
2022-12-11T18:33:52.763Z,10.33
2022-12-11T18:36:22.303Z,9.23
2022-12-11T18:38:50.692Z,15.73
2022-12-11T18:41:21.175Z,13.30
2022-12-11T18:43:49.402Z,4.37
2022-12-11T18:46:19.468Z,9.40
2022-12-11T18:48:48.796Z,9.17
2022-12-11T18:51:20.028Z,5.07
2022-12-11T18:53:48.233Z,4.95
2022-12-11T18:56:20.076Z,9.67
2022-12-11T18:58:48.638Z,12.53
2022-12-11T19:01:20.437Z,12.70
2022-12-11T19:03:49.722Z,10.90
2022-12-11T19:06:20.123Z,13.57
2022-12-11T19:08:48.433Z,14.27
2022-12-11T19:11:17.841Z,10.17
2022-12-11T19:13:48.521Z,12.97
2022-12-11T19:16:17.986Z,11.97
2022-12-11T19:18:46.550Z,10.50
2022-12-11T19:21:16.495Z,12.90
2022-12-11T19:23:46.168Z,14.50
2022-12-11T19:26:15.977Z,14.40
2022-12-11T19:28:46.295Z,13.00
2022-12-11T19:31:16.884Z,9.93
2022-12-11T19:33:46.830Z,8.80
2022-12-11T19:36:18.127Z,12.60
2022-12-11T19:38:46.924Z,9.20
2022-12-11T19:41:17.798Z,11.37
2022-12-11T19:43:47.525Z,6.57
2022-12-11T19:46:16.481Z,9.80
2022-12-11T19:48:45.273Z,13.07
2022-12-11T19:51:16.273Z,10.47
2022-12-11T19:53:46.313Z,9.98
2022-12-11T19:56:15.465Z,13.30
2022-12-11T19:58:44.035Z,12.00
2022-12-11T20:01:19.728Z,13.67
2022-12-11T20:03:48.023Z,11.50
2022-12-11T20:06:16.240Z,15.20
2022-12-11T20:08:45.876Z,14.47
2022-12-11T20:11:18.436Z,14.90
2022-12-11T20:13:47.422Z,14.80
2022-12-11T20:16:22.083Z,13.00
2022-12-11T20:18:57.384Z,15.63
2022-12-11T20:21:27.270Z,9.57
2022-12-11T20:23:55.721Z,14.50
2022-12-11T20:26:25.498Z,13.87
2022-12-11T20:28:54.175Z,11.07
2022-12-11T20:31:25.283Z,14.27
2022-12-11T20:33:54.811Z,12.63
2022-12-11T20:36:25.197Z,12.47
2022-12-11T20:38:53.786Z,12.33
2022-12-11T20:41:22.946Z,15.00
2022-12-11T20:43:53.323Z,9.17
2022-12-11T20:46:25.004Z,12.00
2022-12-11T20:48:54.489Z,10.27
2022-12-11T20:51:26.292Z,8.77
2022-12-11T20:53:58.840Z,11.30
2022-12-11T20:56:30.474Z,11.73
2022-12-11T20:59:00.000Z,10.25
2022-12-11T21:01:31.713Z,13.00
2022-12-11T21:04:00.674Z,10.60
2022-12-11T21:06:31.316Z,12.87
2022-12-11T21:09:00.468Z,10.95
2022-12-11T21:11:28.927Z,8.50
2022-12-11T21:13:57.577Z,9.07
2022-12-11T21:16:26.339Z,11.77
2022-12-11T21:18:56.205Z,9.83
2022-12-11T21:21:24.920Z,9.67
2022-12-11T21:23:53.427Z,9.07
2022-12-11T21:26:22.137Z,10.83
2022-12-11T21:28:50.641Z,8.33
2022-12-11T21:31:20.432Z,12.13
2022-12-11T21:33:49.604Z,10.93
2022-12-11T21:36:20.164Z,9.47
2022-12-11T21:38:48.936Z,8.70
2022-12-11T21:41:18.394Z,9.77
2022-12-11T21:44:40.827Z,8.93
2022-12-11T21:46:36.776Z,9.87
2022-12-11T21:49:05.312Z,11.17
2022-12-11T21:51:40.252Z,8.50
2022-12-11T21:54:14.449Z,8.60
2022-12-11T21:56:43.200Z,9.67
2022-12-11T21:59:11.665Z,9.53
2022-12-11T22:01:42.342Z,7.33
2022-12-11T22:04:11.955Z,8.35
2022-12-11T22:06:43.569Z,11.87
2022-12-11T22:09:13.280Z,8.33
2022-12-11T22:11:43.060Z,8.57
2022-12-11T22:14:13.760Z,7.53
2022-12-11T22:16:42.470Z,6.57
2022-12-11T22:19:11.229Z,6.90
2022-12-11T22:21:39.610Z,5.50
2022-12-11T22:24:09.523Z,7.03
2022-12-11T22:26:37.824Z,2.17
2022-12-11T22:29:06.002Z,4.77
2022-12-11T22:31:34.225Z,6.70
2022-12-11T22:34:02.399Z,5.47
2022-12-11T22:36:30.726Z,4.40
2022-12-11T22:39:00.848Z,6.37
2022-12-11T22:41:32.111Z,7.23
2022-12-11T22:44:00.458Z,8.02
2022-12-11T22:46:30.889Z,7.53
2022-12-11T22:48:59.665Z,6.97
2022-12-11T22:51:27.991Z,8.00
2022-12-11T22:53:56.348Z,7.27
2022-12-11T22:56:24.627Z,7.47
2022-12-11T22:58:54.316Z,5.97
2022-12-11T23:01:25.307Z,7.33
2022-12-11T23:03:54.333Z,5.28
2022-12-11T23:06:25.107Z,8.77
2022-12-11T23:08:55.213Z,5.70
2022-12-11T23:11:25.992Z,7.57
2022-12-11T23:13:56.125Z,6.68
2022-12-11T23:16:26.059Z,5.10
2022-12-11T23:18:54.561Z,6.10
2022-12-11T23:21:23.449Z,7.80
2022-12-11T23:23:52.348Z,6.93
2022-12-11T23:26:21.356Z,5.70
2022-12-11T23:28:50.304Z,6.17
2022-12-11T23:31:19.997Z,1.93
2022-12-11T23:33:48.856Z,8.40
2022-12-11T23:36:17.502Z,6.50
2022-12-11T23:38:50.923Z,6.67
2022-12-11T23:41:23.339Z,3.53
2022-12-11T23:43:51.561Z,5.57
2022-12-11T23:46:23.747Z,5.47
2022-12-11T23:48:53.666Z,2.17
2022-12-11T23:51:24.031Z,5.27
2022-12-11T23:53:52.607Z,5.70
2022-12-11T23:56:23.447Z,4.03
2022-12-11T23:58:51.999Z,4.55
